Time;durP1;ratioP1;P1;durP2;ratioP2;P2;SDS_P1;SDS_P2;PMS_P1;PMS_P2;Temp;Humidity;BMP_temperature;BMP_pressure;BME280_temperature;BME280_humidity;BME280_pressure;Samples;Min_cycle;Max_cycle;Signal;HPM_P1;HPM_P2
2022/05/22 00:01:35;;;;;;;;;;;;;;;;;;5057758;28;19913;-78
2022/05/22 00:04:01;;;;;;;;;;;;;;;;;;5060916;28;19955;-78
2022/05/22 00:06:27;;;;;;;;;;;;;;;;;;5068740;28;19931;-78
2022/05/22 00:08:53;;;;;;;;;;;;;;;;;;5074232;28;19913;-78
2022/05/22 00:11:19;;;;;;;;;;;;;;;;;;5072712;28;19913;-78
2022/05/22 00:13:45;;;;;;;;;;;;;;;;;;5061123;28;19916;-78
2022/05/22 00:18:55;;;;;;;;;;;;;;;;;;5052557;28;20012;-78
2022/05/22 00:21:21;;;;;;;;;;;;;;;;;;5050996;28;19956;-78
2022/05/22 00:23:47;;;;;;;;;;;;;;;;;;5055671;28;19909;-78
2022/05/22 00:26:13;;;;;;;;;;;;;;;;;;5055625;28;19916;-78
2022/05/22 00:28:39;;;;;;;;;;;;;;;;;;5056245;28;19917;-78
2022/05/22 00:31:05;;;;;;;;;;;;;;;;;;5054229;28;19912;-79
2022/05/22 00:33:31;;;;;;;;;;;;;;;;;;5054054;28;19909;-79
2022/05/22 00:35:57;;;;;;;;;;;;;;;;;;5052921;28;19909;-78
2022/05/22 00:38:23;;;;;;;;;;;;;;;;;;5053224;28;19909;-79
2022/05/22 00:40:49;;;;;;;;;;;;;;;;;;5055879;28;20292;-79
2022/05/22 00:43:15;;;;;;;;;;;;;;;;;;5055195;28;19976;-79
2022/05/22 00:45:41;;;;;;;;;;;;;;;;;;5051318;28;19920;-79
2022/05/22 00:48:06;;;;;;;;;;;;;;;;;;5053144;28;19960;-79
2022/05/22 00:50:32;;;;;;;;;;;;;;;;;;5052176;28;19932;-79
2022/05/22 00:52:59;;;;;;;;;;;;;;;;;;5051801;28;19931;-78
2022/05/22 00:55:25;;;;;;;;;;;;;;;;;;5049849;28;19909;-78
2022/05/22 00:57:50;;;;;;;;;;;;;;;;;;5052948;28;19909;-78
2022/05/22 01:00:16;;;;;;;;;;;;;;;;;;5050184;28;20351;-79
2022/05/22 01:05:27;;;;;;;;;;;;;;;;;;5057797;28;19919;-79
2022/05/22 01:07:53;;;;;;;;;;;;;;;;;;5059041;28;20007;-79
2022/05/22 01:10:19;;;;;;;;;;;;;;;;;;5059345;28;19913;-80
2022/05/22 01:12:45;;;;;;;;;;;;;;;;;;5058056;28;20007;-79
2022/05/22 01:15:11;;;;;;;;;;;;;;;;;;5055260;28;19924;-79
2022/05/22 01:17:36;;;;;;;;;;;;;;;;;;5055306;28;19915;-79
2022/05/22 01:20:02;;;;;;;;;;;;;;;;;;5054217;28;19919;-79
2022/05/22 01:22:28;;;;;;;;;;;;;;;;;;5056142;28;19909;-79
2022/05/22 01:24:54;;;;;;;;;;;;;;;;;;5055309;28;19951;-79
2022/05/22 01:27:20;;;;;;;;;;;;;;;;;;5055740;28;19923;-79
2022/05/22 01:29:46;;;;;;;;;;;;;;;;;;5055294;28;19967;-79
2022/05/22 01:32:12;;;;;;;;;;;;;;;;;;5056340;28;20288;-79
2022/05/22 01:34:38;;;;;;;;;;;;;;;;;;5053860;28;19908;-78
2022/05/22 01:37:04;;;;;;;;;;;;;;;;;;5055186;28;19909;-78
2022/05/22 01:39:30;;;;;;;;;;;;;;;;;;5054993;28;19955;-78
2022/05/22 01:41:56;;;;;;;;;;;;;;;;;;5055256;28;19944;-78
2022/05/22 01:44:22;;;;;;;;;;;;;;;;;;5055019;28;20291;-78
2022/05/22 01:46:48;;;;;;;;;;;;;;;;;;5055230;28;19916;-78
2022/05/22 01:49:14;;;;;;;;;;;;;;;;;;5054497;28;20000;-79
2022/05/22 01:51:40;;;;;;;;;;;;;;;;;;5057282;28;19932;-77
2022/05/22 01:54:06;;;;;;;;;;;;;;;;;;5056572;28;19909;-77
2022/05/22 01:56:31;;;;;;;;;;;;;;;;;;5055937;28;19912;-80
2022/05/22 01:58:57;;;;;;;;;;;;;;;;;;5055811;28;19923;-80
2022/05/22 02:01:23;;;;;;;;;;;;;;;;;;5056133;28;20002;-78
2022/05/22 02:03:49;;;;;;;;;;;;;;;;;;5056140;28;19909;-79
2022/05/22 02:06:15;;;;;;;;;;;;;;;;;;5056422;28;19920;-79
2022/05/22 02:08:42;;;;;;;;;;;;;;;;;;5055733;28;19956;-80
2022/05/22 02:11:08;;;;;;;;;;;;;;;;;;5055969;28;20007;-80
2022/05/22 02:13:33;;;;;;;;;;;;;;;;;;5054868;28;19960;-80
2022/05/22 02:15:59;;;;;;;;;;;;;;;;;;5054528;28;20007;-80
2022/05/22 02:18:25;;;;;;;;;;;;;;;;;;5055091;28;19962;-80
2022/05/22 02:20:51;;;;;;;;;;;;;;;;;;5054866;28;19916;-80
2022/05/22 02:23:17;;;;;;;;;;;;;;;;;;5055878;28;19916;-80
2022/05/22 02:25:43;;;;;;;;;;;;;;;;;;5057003;28;20007;-80
2022/05/22 02:28:11;;;;;;;;;;;;;;;;;;5056299;28;19913;-79
2022/05/22 02:30:37;;;;;;;;;;;;;;;;;;5056563;28;20343;-79
2022/05/22 02:33:03;;;;;;;;;;;;;;;;;;5057020;28;19954;-78
2022/05/22 02:35:30;;;;;;;;;;;;;;;;;;5055110;28;19943;-77
2022/05/22 02:37:56;;;;;;;;;;;;;;;;;;5053168;28;19949;-77
2022/05/22 02:40:22;;;;;;;;;;;;;;;;;;5054593;28;19913;-77
2022/05/22 02:42:48;;;;;;;;;;;;;;;;;;5055238;28;20188;-78
2022/05/22 02:45:15;;;;;;;;;;;;;;;;;;5054026;28;19909;-78
2022/05/22 02:47:40;;;;;;;;;;;;;;;;;;5053130;28;19913;-78
2022/05/22 02:50:06;;;;;;;;;;;;;;;;;;5051744;28;19915;-77
2022/05/22 02:52:32;;;;;;;;;;;;;;;;;;5053688;28;20003;-79
2022/05/22 02:54:58;;;;;;;;;;;;;;;;;;5055465;28;19916;-78
2022/05/22 02:57:25;;;;;;;;;;;;;;;;;;5053839;28;20280;-78
2022/05/22 02:59:51;;;;;;;;;;;;;;;;;;5051079;28;19951;-77
2022/05/22 03:02:16;;;;;;;;;;;;;;;;;;5052534;28;19956;-77
2022/05/22 03:04:42;;;;;;;;;;;;;;;;;;5052255;28;19949;-77
2022/05/22 03:07:08;;;;;;;;;;;;;;;;;;5052366;28;19909;-77
2022/05/22 03:09:34;;;;;;;;;;;;;;;;;;5052044;28;19952;-77
2022/05/22 03:12:00;;;;;;;;;;;;;;;;;;5053137;28;19909;-77
2022/05/22 03:14:26;;;;;;;;;;;;;;;;;;5052784;28;19916;-78
2022/05/22 03:16:52;;;;;;;;;;;;;;;;;;5052795;28;19912;-78
2022/05/22 03:19:18;;;;;;;;;;;;;;;;;;5051188;28;20050;-78
2022/05/22 03:21:44;;;;;;;;;;;;;;;;;;5051482;28;20391;-78
2022/05/22 03:24:10;;;;;;;;;;;;;;;;;;5052232;28;20402;-77
2022/05/22 03:26:36;;;;;;;;;;;;;;;;;;5052460;28;20368;-77
2022/05/22 03:29:02;;;;;;;;;;;;;;;;;;5052313;28;19975;-79
2022/05/22 03:31:28;;;;;;;;;;;;;;;;;;5053040;28;20272;-79
2022/05/22 03:33:54;;;;;;;;;;;;;;;;;;5053517;28;20144;-78
2022/05/22 03:36:20;;;;;;;;;;;;;;;;;;5054284;28;19909;-78
2022/05/22 03:38:46;;;;;;;;;;;;;;;;;;5054246;28;19909;-79
2022/05/22 03:41:12;;;;;;;;;;;;;;;;;;5058899;28;19932;-79
2022/05/22 03:43:38;;;;;;;;;;;;;;;;;;5064705;28;20003;-78
2022/05/22 03:46:04;;;;;;;;;;;;;;;;;;5063203;28;19913;-79
2022/05/22 03:48:30;;;;;;;;;;;;;;;;;;5061944;28;19912;-79
2022/05/22 03:50:56;;;;;;;;;;;;;;;;;;5065418;28;20353;-79
2022/05/22 03:53:22;;;;;;;;;;;;;;;;;;5071612;28;20319;-79
2022/05/22 03:55:48;;;;;;;;;;;;;;;;;;5057893;28;20349;-78
2022/05/22 03:58:14;;;;;;;;;;;;;;;;;;5051712;28;20368;-78
2022/05/22 04:00:41;;;;;;;;;;;;;;;;;;5049890;28;20287;-78
2022/05/22 04:03:07;;;;;;;;;;;;;;;;;;5051827;28;19909;-78
2022/05/22 04:05:33;;;;;;;;;;;;;;;;;;5051720;28;19912;-77
2022/05/22 04:07:59;;;;;;;;;;;;;;;;;;5050994;28;19968;-78
2022/05/22 04:10:25;;;;;;;;;;;;;;;;;;5049749;28;19909;-77
2022/05/22 04:12:51;;;;;;;;;;;;;;;;;;5051131;28;19920;-77
2022/05/22 04:15:18;;;;;;;;;;;;;;;;;;5050675;28;19923;-77
2022/05/22 04:17:44;;;;;;;;;;;;;;;;;;5050291;28;19917;-77
2022/05/22 04:20:10;;;;;;;;;;;;;;;;;;5048774;28;20334;-77
2022/05/22 04:25:11;;;;;;;;;;;;;;;;;;5050266;28;19912;-77
2022/05/22 04:25:24;;;;;;;;;;;;;;;;;;5061733;28;19962;-80
2022/05/22 04:27:50;;;;;;;;;;;;;;;;;;5063201;28;20352;-80
2022/05/22 04:30:20;;;;;;;;;;;;;;;;;;5061193;28;20342;-79
2022/05/22 04:32:46;;;;;;;;;;;;;;;;;;5057746;28;19940;-78
2022/05/22 04:35:11;;;;;;;;;;;;;;;;;;5054863;28;19913;-79
2022/05/22 04:37:38;;;;;;;;;;;;;;;;;;5058957;28;20450;-78
2022/05/22 04:40:04;;;;;;;;;;;;;;;;;;5058157;28;19944;-79
2022/05/22 04:42:30;;;;;;;;;;;;;;;;;;5061143;28;19909;-79
2022/05/22 04:44:56;;;;;;;;;;;;;;;;;;5065740;28;19909;-79
2022/05/22 04:47:22;;;;;;;;;;;;;;;;;;5066318;28;20395;-78
2022/05/22 04:49:48;;;;;;;;;;;;;;;;;;5073249;28;19913;-78
2022/05/22 04:52:13;;;;;;;;;;;;;;;;;;5073570;28;19908;-78
2022/05/22 04:54:39;;;;;;;;;;;;;;;;;;5071123;28;19920;-78
2022/05/22 04:57:05;;;;;;;;;;;;;;;;;;5054589;28;19909;-78
2022/05/22 04:59:31;;;;;;;;;;;;;;;;;;5055183;28;19909;-78
2022/05/22 05:01:57;;;;;;;;;;;;;;;;;;5055400;28;19909;-79
2022/05/22 05:04:23;;;;;;;;;;;;;;;;;;5053330;28;19912;-80
2022/05/22 05:06:52;;;;;;;;;;;;;;;;;;5055385;28;19916;-80
2022/05/22 05:09:18;;;;;;;;;;;;;;;;;;5055611;28;19970;-81
2022/05/22 05:11:44;;;;;;;;;;;;;;;;;;5056061;28;20326;-82
2022/05/22 05:14:10;;;;;;;;;;;;;;;;;;5055133;28;19955;-79
2022/05/22 05:16:36;;;;;;;;;;;;;;;;;;4995511;28;1747008;-79
2022/05/22 05:19:02;;;;;;;;;;;;;;;;;;5056519;28;19912;-79
2022/05/22 05:21:28;;;;;;;;;;;;;;;;;;5058278;28;19920;-82
2022/05/22 05:23:55;;;;;;;;;;;;;;;;;;5057103;28;19912;-80
2022/05/22 05:26:21;;;;;;;;;;;;;;;;;;5056309;28;20376;-78
2022/05/22 05:28:47;;;;;;;;;;;;;;;;;;5054487;28;20040;-77
2022/05/22 05:31:13;;;;;;;;;;;;;;;;;;5053249;28;19909;-78
2022/05/22 05:33:39;;;;;;;;;;;;;;;;;;5055016;28;20099;-77
2022/05/22 05:36:05;;;;;;;;;;;;;;;;;;5055069;28;19913;-78
2022/05/22 05:38:32;;;;;;;;;;;;;;;;;;5053263;28;19963;-78
2022/05/22 05:40:58;;;;;;;;;;;;;;;;;;5055111;28;19909;-79
2022/05/22 05:43:24;;;;;;;;;;;;;;;;;;5054488;28;20054;-78
2022/05/22 05:45:50;;;;;;;;;;;;;;;;;;5054553;28;19963;-78
2022/05/22 05:48:17;;;;;;;;;;;;;;;;;;5052710;28;19913;-78
2022/05/22 05:50:42;;;;;;;;;;;;;;;;;;5054412;28;19943;-78
2022/05/22 05:53:08;;;;;;;;;;;;;;;;;;5055132;28;20323;-78
2022/05/22 05:55:34;;;;;;;;;;;;;;;;;;5052882;28;19917;-78
2022/05/22 05:58:03;;;;;;;;;;;;;;;;;;5053966;28;20004;-78
2022/05/22 06:00:29;;;;;;;;;;;;;;;;;;5054948;28;19913;-79
2022/05/22 06:02:55;;;;;;;;;;;;;;;;;;5056754;28;20344;-80
2022/05/22 06:05:21;;;;;;;;;;;;;;;;;;5054546;28;19955;-80
2022/05/22 06:07:48;;;;;;;;;;;;;;;;;;5057268;28;19909;-82
2022/05/22 06:10:14;;;;;;;;;;;;;;;;;;5056591;28;20346;-81
2022/05/22 06:12:39;;;;;;;;;;;;;;;;;;5056743;28;19951;-80
2022/05/22 06:15:05;;;;;;;;;;;;;;;;;;5055747;28;19916;-80
2022/05/22 06:17:31;;;;;;;;;;;;;;;;;;5056093;28;19909;-80
2022/05/22 06:19:57;;;;;;;;;;;;;;;;;;5058331;28;19915;-81
2022/05/22 06:22:23;;;;;;;;;;;;;;;;;;5055446;28;19909;-80
2022/05/22 06:24:49;;;;;;;;;;;;;;;;;;5055075;28;19917;-80
2022/05/22 06:27:15;;;;;;;;;;;;;;;;;;5064686;28;19992;-80
2022/05/22 06:29:41;;;;;;;;;;;;;;;;;;5059345;28;19913;-81
2022/05/22 06:32:07;;;;;;;;;;;;;;;;;;5050004;28;19948;-80
2022/05/22 06:34:33;;;;;;;;;;;;;;;;;;5054149;28;19963;-80
2022/05/22 06:36:59;;;;;;;;;;;;;;;;;;5058802;28;19915;-80
2022/05/22 06:42:10;;;;;;;;;;;;;;;;;;5045119;28;19923;-77
2022/05/22 06:44:36;;;;;;;;;;;;;;;;;;5053742;28;19909;-78
2022/05/22 06:47:02;;;;;;;;;;;;;;;;;;5052333;28;19909;-79
2022/05/22 06:49:28;;;;;;;;;;;;;;;;;;5051781;28;19932;-79
2022/05/22 06:51:56;;;;;;;;;;;;;;;;;;5055206;28;19909;-79
2022/05/22 06:54:22;;;;;;;;;;;;;;;;;;5053147;28;19912;-79
2022/05/22 06:56:48;;;;;;;;;;;;;;;;;;5054332;28;20012;-79
2022/05/22 06:59:14;;;;;;;;;;;;;;;;;;5051960;28;19974;-79
2022/05/22 07:01:40;;;;;;;;;;;;;;;;;;5051302;28;19913;-79
2022/05/22 07:04:06;;;;;;;;;;;;;;;;;;5058743;28;19920;-79
2022/05/22 07:06:32;;;;;;;;;;;;;;;;;;5055156;28;20390;-79
2022/05/22 07:08:58;;;;;;;;;;;;;;;;;;5059695;28;19964;-79
2022/05/22 07:11:39;;;;;;;;;;;;;;;;;;5052369;28;19909;-79
2022/05/22 07:14:05;;;;;;;;;;;;;;;;;;5052021;28;19979;-79
2022/05/22 07:16:31;;;;;;;;;;;;;;;;;;5055424;28;19956;-79
2022/05/22 07:18:57;;;;;;;;;;;;;;;;;;5069756;28;19909;-79
2022/05/22 07:21:24;;;;;;;;;;;;;;;;;;5060377;28;19916;-79
2022/05/22 07:23:50;;;;;;;;;;;;;;;;;;5072171;28;20417;-79
2022/05/22 07:26:18;;;;;;;;;;;;;;;;;;5056501;28;20348;-79
2022/05/22 07:28:44;;;;;;;;;;;;;;;;;;5064535;28;19920;-79
2022/05/22 07:31:10;;;;;;;;;;;;;;;;;;5057320;28;19912;-79
2022/05/22 07:33:36;;;;;;;;;;;;;;;;;;5052835;28;19920;-79
2022/05/22 07:36:02;;;;;;;;;;;;;;;;;;5074340;28;19931;-79
2022/05/22 07:38:28;;;;;;;;;;;;;;;;;;5046064;28;19909;-79
2022/05/22 07:40:54;;;;;;;;;;;;;;;;;;5035120;28;19909;-79
2022/05/22 07:43:21;;;;;;;;;;;;;;;;;;5035230;28;19917;-79
2022/05/22 07:45:47;;;;;;;;;;;;;;;;;;5035582;28;19913;-79
2022/05/22 07:48:13;;;;;;;;;;;;;;;;;;5035585;28;19939;-79
2022/05/22 07:50:39;;;;;;;;;;;;;;;;;;5047139;28;19913;-79
2022/05/22 07:53:05;;;;;;;;;;;;;;;;;;5053839;28;19983;-79
2022/05/22 07:55:31;;;;;;;;;;;;;;;;;;5039488;28;19959;-79
2022/05/22 07:57:57;;;;;;;;;;;;;;;;;;5034448;28;19909;-79
2022/05/22 08:00:23;;;;;;;;;;;;;;;;;;5033171;28;20286;-79
2022/05/22 08:02:49;;;;;;;;;;;;;;;;;;5044884;28;20365;-79
2022/05/22 08:05:17;;;;;;;;;;;;;;;;;;5055146;28;20280;-79
2022/05/22 08:07:42;;;;;;;;;;;;;;;;;;5054356;28;19920;-79
2022/05/22 08:10:08;;;;;;;;;;;;;;;;;;5052558;28;19908;-79
2022/05/22 08:12:34;;;;;;;;;;;;;;;;;;5052863;28;19912;-79
2022/05/22 08:15:00;;;;;;;;;;;;;;;;;;5054567;28;19921;-79
2022/05/22 08:17:26;;;;;;;;;;;;;;;;;;5059186;28;19919;-80
2022/05/22 08:19:52;;;;;;;;;;;;;;;;;;5055025;28;19913;-80
2022/05/22 08:22:18;;;;;;;;;;;;;;;;;;5055352;28;19917;-80
2022/05/22 08:24:44;;;;;;;;;;;;;;;;;;5056656;28;19920;-80
2022/05/22 08:27:10;;;;;;;;;;;;;;;;;;5056828;28;20399;-80
2022/05/22 08:29:36;;;;;;;;;;;;;;;;;;5050003;28;19921;-80
2022/05/22 08:32:02;;;;;;;;;;;;;;;;;;5054325;28;19909;-80
2022/05/22 08:34:28;;;;;;;;;;;;;;;;;;5054053;28;19963;-80
2022/05/22 08:36:54;;;;;;;;;;;;;;;;;;5056090;28;19913;-80
2022/05/22 08:39:20;;;;;;;;;;;;;;;;;;5057131;28;19916;-81
2022/05/22 08:41:46;;;;;;;;;;;;;;;;;;5056688;28;19966;-80
2022/05/22 08:44:12;;;;;;;;;;;;;;;;;;5056791;28;19916;-80
2022/05/22 08:46:38;;;;;;;;;;;;;;;;;;5041104;28;19913;-80
2022/05/22 08:49:04;;;;;;;;;;;;;;;;;;5052427;28;19917;-79
2022/05/22 08:51:30;;;;;;;;;;;;;;;;;;5053304;28;19966;-79
2022/05/22 08:53:58;;;;;;;;;;;;;;;;;;5054734;28;19913;-80
2022/05/22 08:59:08;;;;;;;;;;;;;;;;;;5054685;28;19920;-79
2022/05/22 09:01:34;;;;;;;;;;;;;;;;;;5055589;28;19913;-79
2022/05/22 09:04:00;;;;;;;;;;;;;;;;;;5053850;28;19920;-79
2022/05/22 09:06:26;;;;;;;;;;;;;;;;;;5052679;28;19921;-79
2022/05/22 09:08:52;;;;;;;;;;;;;;;;;;5054301;28;20011;-79
2022/05/22 09:11:18;;;;;;;;;;;;;;;;;;5053664;28;19913;-79
2022/05/22 09:13:44;;;;;;;;;;;;;;;;;;5050857;28;19916;-79
2022/05/22 09:16:10;;;;;;;;;;;;;;;;;;5052749;28;20360;-80
2022/05/22 09:18:36;;;;;;;;;;;;;;;;;;5054811;28;19917;-79
2022/05/22 09:21:02;;;;;;;;;;;;;;;;;;5052433;28;19917;-80
2022/05/22 09:23:28;;;;;;;;;;;;;;;;;;5063652;28;19920;-80
2022/05/22 09:25:54;;;;;;;;;;;;;;;;;;5069385;28;19920;-79
2022/05/22 09:28:19;;;;;;;;;;;;;;;;;;5068679;28;19912;-81
2022/05/22 09:30:45;;;;;;;;;;;;;;;;;;5061555;28;19943;-79
2022/05/22 09:33:11;;;;;;;;;;;;;;;;;;5055962;28;19913;-79
2022/05/22 09:35:37;;;;;;;;;;;;;;;;;;5066225;28;19975;-80
2022/05/22 09:38:03;;;;;;;;;;;;;;;;;;5075634;28;19915;-79
2022/05/22 09:40:29;;;;;;;;;;;;;;;;;;5073064;28;19912;-81
2022/05/22 09:42:55;;;;;;;;;;;;;;;;;;5081729;28;20054;-80
2022/05/22 09:45:21;;;;;;;;;;;;;;;;;;5080170;28;19959;-80
2022/05/22 09:47:47;;;;;;;;;;;;;;;;;;5079800;28;19913;-79
2022/05/22 09:50:13;;;;;;;;;;;;;;;;;;5079201;28;19915;-79
2022/05/22 09:52:39;;;;;;;;;;;;;;;;;;5080335;28;19912;-79
2022/05/22 09:55:05;;;;;;;;;;;;;;;;;;5081311;28;19912;-79
2022/05/22 09:57:31;;;;;;;;;;;;;;;;;;5081673;28;19944;-79
2022/05/22 09:59:57;;;;;;;;;;;;;;;;;;5081013;28;19908;-79
2022/05/22 10:02:23;;;;;;;;;;;;;;;;;;5088529;28;19916;-80
2022/05/22 10:04:51;;;;;;;;;;;;;;;;;;5096629;28;20038;-80
2022/05/22 10:07:17;;;;;;;;;;;;;;;;;;5096279;28;19916;-80
2022/05/22 10:09:43;;;;;;;;;;;;;;;;;;5079423;28;19934;-80
2022/05/22 10:12:10;;;;;;;;;;;;;;;;;;5075945;28;20394;-79
2022/05/22 10:14:36;;;;;;;;;;;;;;;;;;5076517;28;19966;-80
2022/05/22 10:17:02;;;;;;;;;;;;;;;;;;5074491;28;19935;-80
2022/05/22 10:19:28;;;;;;;;;;;;;;;;;;5075122;28;20376;-80
2022/05/22 10:21:54;;;;;;;;;;;;;;;;;;5076124;28;19908;-80
2022/05/22 10:24:20;;;;;;;;;;;;;;;;;;5077681;28;20307;-80
2022/05/22 10:26:46;;;;;;;;;;;;;;;;;;5076471;28;20279;-79
2022/05/22 10:29:12;;;;;;;;;;;;;;;;;;5074148;28;20334;-79
2022/05/22 10:31:38;;;;;;;;;;;;;;;;;;5074061;28;20433;-80
2022/05/22 10:34:04;;;;;;;;;;;;;;;;;;5076228;28;20000;-80
2022/05/22 10:36:30;;;;;;;;;;;;;;;;;;5078195;28;19909;-80
2022/05/22 10:38:56;;;;;;;;;;;;;;;;;;5068540;28;19982;-81
2022/05/22 10:44:07;;;;;;;;;;;;;;;;;;5055536;28;20001;-81
2022/05/22 10:46:32;;;;;;;;;;;;;;;;;;5054489;28;19940;-81
2022/05/22 10:48:58;;;;;;;;;;;;;;;;;;5052875;28;19921;-79
2022/05/22 10:51:24;;;;;;;;;;;;;;;;;;5052248;28;19951;-80
2022/05/22 10:53:50;;;;;;;;;;;;;;;;;;5050545;28;19971;-78
2022/05/22 10:56:16;;;;;;;;;;;;;;;;;;5052468;28;20015;-79
2022/05/22 10:58:42;;;;;;;;;;;;;;;;;;5051885;28;19941;-78
2022/05/22 11:01:08;;;;;;;;;;;;;;;;;;5052514;28;19909;-79
2022/05/22 11:03:34;;;;;;;;;;;;;;;;;;5055042;28;20386;-79
2022/05/22 11:06:01;;;;;;;;;;;;;;;;;;5051251;28;20387;-79
2022/05/22 11:08:28;;;;;;;;;;;;;;;;;;5050704;28;19931;-78
2022/05/22 11:10:54;;;;;;;;;;;;;;;;;;5051702;28;19931;-78
2022/05/22 11:13:20;;;;;;;;;;;;;;;;;;5052645;28;20364;-78
2022/05/22 11:15:46;;;;;;;;;;;;;;;;;;5050777;28;20384;-78
2022/05/22 11:18:12;;;;;;;;;;;;;;;;;;5052444;28;19912;-78
2022/05/22 11:20:38;;;;;;;;;;;;;;;;;;5052199;28;19937;-78
2022/05/22 11:23:04;;;;;;;;;;;;;;;;;;5051934;28;20000;-78
2022/05/22 11:25:31;;;;;;;;;;;;;;;;;;5051266;28;19909;-78
2022/05/22 11:27:57;;;;;;;;;;;;;;;;;;5049669;28;19935;-78
2022/05/22 11:30:23;;;;;;;;;;;;;;;;;;5050377;28;19913;-78
2022/05/22 11:32:49;;;;;;;;;;;;;;;;;;5050940;28;19996;-78
2022/05/22 11:35:15;;;;;;;;;;;;;;;;;;5050855;28;19948;-78
2022/05/22 11:37:41;;;;;;;;;;;;;;;;;;5050703;28;20322;-79
2022/05/22 11:40:07;;;;;;;;;;;;;;;;;;5050214;28;19909;-78
2022/05/22 11:42:33;;;;;;;;;;;;;;;;;;5048870;28;20015;-78
2022/05/22 11:44:59;;;;;;;;;;;;;;;;;;5049228;28;20170;-78
2022/05/22 11:47:25;;;;;;;;;;;;;;;;;;5048512;28;20031;-78
2022/05/22 11:49:51;;;;;;;;;;;;;;;;;;5049164;28;19949;-78
2022/05/22 11:52:54;;;;;;;;;;;;;;;;;;5048471;28;20495;-78
2022/05/22 11:55:03;;;;;;;;;;;;;;;;;;5049680;28;19909;-78
2022/05/22 11:57:29;;;;;;;;;;;;;;;;;;5050368;28;19963;-78
2022/05/22 11:59:56;;;;;;;;;;;;;;;;;;5048896;28;20323;-78
2022/05/22 12:02:24;;;;;;;;;;;;;;;;;;5050413;28;19978;-79
2022/05/22 12:04:50;;;;;;;;;;;;;;;;;;5050063;28;19908;-78
2022/05/22 12:07:16;;;;;;;;;;;;;;;;;;5050229;28;20010;-78
2022/05/22 12:09:41;;;;;;;;;;;;;;;;;;5049721;28;19960;-79
2022/05/22 12:12:10;;;;;;;;;;;;;;;;;;5050592;28;20009;-78
2022/05/22 12:14:36;;;;;;;;;;;;;;;;;;5050032;28;19909;-79
2022/05/22 12:17:02;;;;;;;;;;;;;;;;;;5050079;28;20276;-78
2022/05/22 12:19:28;;;;;;;;;;;;;;;;;;5048584;28;20196;-78
2022/05/22 12:21:54;;;;;;;;;;;;;;;;;;5050144;28;19959;-78
2022/05/22 12:24:20;;;;;;;;;;;;;;;;;;5050084;28;19951;-78
2022/05/22 12:26:46;;;;;;;;;;;;;;;;;;5050048;28;19948;-77
2022/05/22 12:29:12;;;;;;;;;;;;;;;;;;5048262;28;20315;-78
2022/05/22 12:31:38;;;;;;;;;;;;;;;;;;5050037;28;19945;-78
2022/05/22 12:34:04;;;;;;;;;;;;;;;;;;5050326;28;20002;-79
2022/05/22 12:36:30;;;;;;;;;;;;;;;;;;5048604;28;20355;-78
2022/05/22 12:38:56;;;;;;;;;;;;;;;;;;5049525;28;20010;-78
2022/05/22 12:41:21;;;;;;;;;;;;;;;;;;5049724;28;19952;-79
2022/05/22 12:43:47;;;;;;;;;;;;;;;;;;5049796;28;19952;-79
2022/05/22 12:46:13;;;;;;;;;;;;;;;;;;5049980;28;19948;-79
2022/05/22 12:48:40;;;;;;;;;;;;;;;;;;5049451;28;20370;-79
2022/05/22 12:51:06;;;;;;;;;;;;;;;;;;5049805;28;20000;-79
2022/05/22 12:53:31;;;;;;;;;;;;;;;;;;5049766;28;20012;-79
2022/05/22 12:55:57;;;;;;;;;;;;;;;;;;5049430;28;19959;-79
2022/05/22 12:58:23;;;;;;;;;;;;;;;;;;5053122;28;19917;-79
2022/05/22 13:00:50;;;;;;;;;;;;;;;;;;5053469;28;19944;-79
2022/05/22 13:03:16;;;;;;;;;;;;;;;;;;5053773;28;19916;-79
2022/05/22 13:05:42;;;;;;;;;;;;;;;;;;5053426;28;20006;-78
2022/05/22 13:08:08;;;;;;;;;;;;;;;;;;5053310;28;20012;-79
2022/05/22 13:10:34;;;;;;;;;;;;;;;;;;5053153;28;19958;-78
2022/05/22 13:13:00;;;;;;;;;;;;;;;;;;5053595;28;20039;-78
2022/05/22 13:15:26;;;;;;;;;;;;;;;;;;5051882;28;19927;-79
2022/05/22 13:17:52;;;;;;;;;;;;;;;;;;5053230;28;19944;-78
2022/05/22 13:20:18;;;;;;;;;;;;;;;;;;5052821;28;19952;-78
2022/05/22 13:22:44;;;;;;;;;;;;;;;;;;5053259;28;19919;-78
2022/05/22 13:25:10;;;;;;;;;;;;;;;;;;5048645;28;20043;-78
2022/05/22 13:27:36;;;;;;;;;;;;;;;;;;5059972;28;20003;-79
2022/05/22 13:30:03;;;;;;;;;;;;;;;;;;5061496;28;19967;-79
2022/05/22 13:32:30;;;;;;;;;;;;;;;;;;5068764;28;19927;-78
2022/05/22 13:34:56;;;;;;;;;;;;;;;;;;5053169;28;20385;-78
2022/05/22 13:37:22;;;;;;;;;;;;;;;;;;5039236;28;19977;-79
2022/05/22 13:39:48;;;;;;;;;;;;;;;;;;5058740;28;19952;-78
2022/05/22 13:42:14;;;;;;;;;;;;;;;;;;5067931;28;19944;-78
2022/05/22 13:44:40;;;;;;;;;;;;;;;;;;5065185;28;19944;-78
2022/05/22 13:47:06;;;;;;;;;;;;;;;;;;5053124;28;19955;-78
2022/05/22 13:49:32;;;;;;;;;;;;;;;;;;5052346;28;19959;-78
2022/05/22 13:54:43;;;;;;;;;;;;;;;;;;5052423;28;19955;-78
2022/05/22 13:57:09;;;;;;;;;;;;;;;;;;5051042;28;19952;-79
2022/05/22 13:59:35;;;;;;;;;;;;;;;;;;5051921;28;19967;-79
2022/05/22 14:02:00;;;;;;;;;;;;;;;;;;5052932;28;20365;-78
2022/05/22 14:04:26;;;;;;;;;;;;;;;;;;5050979;28;19913;-78
2022/05/22 14:06:52;;;;;;;;;;;;;;;;;;5052359;28;20016;-78
2022/05/22 14:09:18;;;;;;;;;;;;;;;;;;5039268;28;19971;-78
2022/05/22 14:11:44;;;;;;;;;;;;;;;;;;5050510;28;19963;-79
2022/05/22 14:14:10;;;;;;;;;;;;;;;;;;5050963;28;20380;-79
2022/05/22 14:16:36;;;;;;;;;;;;;;;;;;5051787;28;19962;-78
2022/05/22 14:19:02;;;;;;;;;;;;;;;;;;5051454;28;19920;-79
2022/05/22 14:21:28;;;;;;;;;;;;;;;;;;5052132;28;19952;-79
2022/05/22 14:26:39;;;;;;;;;;;;;;;;;;5036590;28;19979;-78
2022/05/22 14:29:05;;;;;;;;;;;;;;;;;;5032228;28;19913;-78
2022/05/22 14:31:31;;;;;;;;;;;;;;;;;;5032102;28;19940;-78
2022/05/22 14:33:57;;;;;;;;;;;;;;;;;;5043308;28;19951;-77
2022/05/22 14:36:23;;;;;;;;;;;;;;;;;;5052516;28;19956;-78
2022/05/22 14:38:49;;;;;;;;;;;;;;;;;;5052137;28;19959;-77
2022/05/22 14:41:16;;;;;;;;;;;;;;;;;;5052614;28;19905;-78
2022/05/22 14:43:42;;;;;;;;;;;;;;;;;;5051122;28;19956;-78
2022/05/22 14:46:08;;;;;;;;;;;;;;;;;;5051070;28;19947;-78
2022/05/22 14:48:34;;;;;;;;;;;;;;;;;;5051424;28;20335;-78
2022/05/22 14:51:00;;;;;;;;;;;;;;;;;;5050706;28;20376;-79
2022/05/22 14:53:26;;;;;;;;;;;;;;;;;;5053597;28;19962;-78
2022/05/22 14:55:52;;;;;;;;;;;;;;;;;;5051290;28;20398;-77
2022/05/22 14:58:18;;;;;;;;;;;;;;;;;;5051728;28;19913;-77
2022/05/22 15:00:44;;;;;;;;;;;;;;;;;;5051231;28;20309;-78
2022/05/22 15:03:10;;;;;;;;;;;;;;;;;;5052035;28;19917;-79
2022/05/22 15:05:36;;;;;;;;;;;;;;;;;;5053613;28;19960;-78
2022/05/22 15:08:02;;;;;;;;;;;;;;;;;;5051072;28;19948;-78
2022/05/22 15:10:29;;;;;;;;;;;;;;;;;;5051556;28;20316;-78
2022/05/22 15:12:55;;;;;;;;;;;;;;;;;;5051179;28;19917;-79
2022/05/22 15:15:20;;;;;;;;;;;;;;;;;;5051123;28;20367;-78
2022/05/22 15:17:46;;;;;;;;;;;;;;;;;;5050701;28;20344;-79
2022/05/22 15:20:13;;;;;;;;;;;;;;;;;;5049675;28;19919;-79
2022/05/22 15:25:27;;;;;;;;;;;;;;;;;;5050226;28;20021;-79
2022/05/22 15:27:53;;;;;;;;;;;;;;;;;;5051471;28;20376;-78
2022/05/22 15:30:19;;;;;;;;;;;;;;;;;;5050788;28;19917;-79
2022/05/22 15:32:45;;;;;;;;;;;;;;;;;;5052306;28;19912;-79
2022/05/22 15:35:12;;;;;;;;;;;;;;;;;;5032990;28;19909;-78
2022/05/22 15:37:38;;;;;;;;;;;;;;;;;;5050426;28;19920;-79
2022/05/22 15:40:04;;;;;;;;;;;;;;;;;;5048901;28;19959;-79
2022/05/22 15:42:30;;;;;;;;;;;;;;;;;;5047061;28;19909;-79
2022/05/22 15:44:56;;;;;;;;;;;;;;;;;;5050458;28;19940;-79
2022/05/22 15:47:22;;;;;;;;;;;;;;;;;;5050647;28;20403;-79
2022/05/22 15:52:33;;;;;;;;;;;;;;;;;;5030702;28;19915;-78
2022/05/22 15:54:59;;;;;;;;;;;;;;;;;;5030690;28;19920;-79
2022/05/22 15:57:25;;;;;;;;;;;;;;;;;;5047089;28;19948;-79
2022/05/22 15:59:51;;;;;;;;;;;;;;;;;;5050151;28;20378;-79
2022/05/22 16:02:17;;;;;;;;;;;;;;;;;;5050736;28;20341;-78
2022/05/22 16:04:43;;;;;;;;;;;;;;;;;;5050215;28;19940;-77
2022/05/22 16:07:09;;;;;;;;;;;;;;;;;;5046828;28;19924;-78
2022/05/22 16:09:35;;;;;;;;;;;24.30;42.10;;;;;;5029890;28;19922;-78
2022/05/22 16:12:00;;;;;;;;;;;24.40;42.70;;;;;;5030358;28;19913;-79
2022/05/22 16:14:26;;;;;;;;;;;24.40;42.80;;;;;;5029505;28;20385;-79
2022/05/22 16:16:52;;;;;;;;;;;24.40;42.70;;;;;;5030540;28;19913;-79
2022/05/22 16:19:23;;;;;;;;;;;24.30;42.80;;;;;;5033906;28;20300;-79
2022/05/22 16:21:50;;;;;;;;;;;24.30;42.90;;;;;;5049640;28;19920;-78
2022/05/22 16:24:16;;;;;;;;;;;24.30;42.50;;;;;;5046495;28;19913;-77
2022/05/22 16:26:42;;;;;;;;;;;24.30;42.80;;;;;;5029710;28;19916;-77
2022/05/22 16:29:07;;;;;;;;;;;24.20;42.80;;;;;;5029018;28;19913;-77
2022/05/22 16:31:34;;;;;;;;;;;24.20;43.10;;;;;;5033101;28;20391;-78
2022/05/22 16:34:04;;;;;;;;;;;24.10;42.60;;;;;;5047499;28;19913;-78
2022/05/22 16:36:30;;;;;;;;;;;24.10;42.70;;;;;;5055305;28;20291;-78
2022/05/22 16:38:56;;;;;;;;;;;24.10;42.50;;;;;;5055359;28;19909;-77
2022/05/22 16:41:22;;;;;;;;;;;24.10;42.30;;;;;;5051584;28;19925;-78
2022/05/22 16:43:48;;;;;;;;;;;24.10;42.30;;;;;;5039283;28;20430;-78
2022/05/22 16:46:24;;;;;;;;;;;24.10;42.10;;;;;;5054294;28;20007;-78
2022/05/22 16:54:18;;;;;;;;;;;24.00;41.90;;;;;;5055038;28;19916;-78
2022/05/22 16:56:45;;;;;;;;;;;24.00;42.00;;;;;;5054689;28;20380;-78
2022/05/22 16:59:10;;;;;;;;;;;24.00;41.70;;;;;;5043370;28;19913;-79